createdAt,value
2019-04-07T00:02:32.421Z,14.51
2019-04-07T00:08:27.363Z,13.79
2019-04-07T00:14:22.343Z,13.4
2019-04-07T00:20:17.366Z,15.88
2019-04-07T00:26:12.794Z,12.28
2019-04-07T00:32:07.350Z,11.22
2019-04-07T00:38:02.334Z,11.73
2019-04-07T00:43:57.382Z,14.97
2019-04-07T00:49:52.366Z,13.52
2019-04-07T00:55:47.553Z,13.81
2019-04-07T01:01:42.535Z,13.1
2019-04-07T01:07:37.371Z,13.96
2019-04-07T01:13:32.453Z,14.16
2019-04-07T01:19:27.808Z,15.09
2019-04-07T01:25:22.549Z,13.15
2019-04-07T01:31:17.644Z,16.61
2019-04-07T01:37:12.389Z,17.53
2019-04-07T01:43:07.574Z,19.49
2019-04-07T01:49:03.006Z,11.89
2019-04-07T01:54:57.516Z,13.23
2019-04-07T02:00:52.422Z,13.54
2019-04-07T02:06:47.524Z,13.92
2019-04-07T02:12:42.420Z,11.25
2019-04-07T02:18:37.834Z,14.11
2019-04-07T02:24:32.489Z,9.63
2019-04-07T02:30:27.419Z,12.77
2019-04-07T02:36:26.716Z,13.16
2019-04-07T02:42:17.435Z,16.29
2019-04-07T02:48:12.560Z,12.19
2019-04-07T02:54:07.787Z,12.3
2019-04-07T03:00:02.461Z,13.07
2019-04-07T03:05:58.071Z,10.98
2019-04-07T03:11:52.539Z,14.82
2019-04-07T03:17:47.747Z,13.54
2019-04-07T03:23:42.474Z,14.45
2019-04-07T03:29:38.341Z,11.77
2019-04-07T03:35:34.269Z,12.75
2019-04-07T03:41:27.773Z,16.7
2019-04-07T03:47:23.403Z,9.99
2019-04-07T03:53:17.938Z,14.67
2019-04-07T03:59:12.950Z,12.42
2019-04-07T04:05:07.481Z,12.28
2019-04-07T04:11:02.727Z,8.67
2019-04-07T04:16:57.927Z,15.09
2019-04-07T04:22:52.721Z,11.19
2019-04-07T04:28:47.467Z,11.09
2019-04-07T04:34:43.199Z,15.7
2019-04-07T04:40:37.587Z,11.19
2019-04-07T04:46:32.746Z,7.91
2019-04-07T04:52:27.801Z,10.11
2019-04-07T04:58:22.838Z,12.03
2019-04-07T05:04:17.734Z,11.98
2019-04-07T05:10:13.317Z,11.43
2019-04-07T05:16:08.228Z,12.04
2019-04-07T05:22:02.554Z,12.91
2019-04-07T05:27:57.824Z,10.15
2019-04-07T05:33:52.533Z,22.32
2019-04-07T05:39:47.511Z,60.92
2019-04-07T05:45:43.350Z,61.84
2019-04-07T05:51:37.536Z,70.41
2019-04-07T05:57:34.838Z,60.18
2019-04-07T06:03:27.620Z,58.19
2019-04-07T06:09:23.065Z,49.28
2019-04-07T06:15:20.925Z,54.16
2019-04-07T06:21:15.086Z,53.14
2019-04-07T06:27:07.563Z,62.4
2019-04-07T06:33:05.464Z,59.89
2019-04-07T06:38:58.129Z,63.96
2019-04-07T06:44:52.836Z,69.21
2019-04-07T06:50:50.164Z,69.68
2019-04-07T06:56:42.570Z,62.73
2019-04-07T07:02:37.970Z,60.34
2019-04-07T07:08:42.349Z,58.29
2019-04-07T07:14:34.664Z,53.26
2019-04-07T07:20:23.845Z,61.85
2019-04-07T07:26:18.082Z,65.4
2019-04-07T07:32:12.678Z,58.05
2019-04-07T07:38:07.626Z,46.17
2019-04-07T07:44:03.675Z,40.45
2019-04-07T07:49:57.638Z,37
2019-04-07T07:55:52.994Z,62.23
2019-04-07T08:01:49.129Z,51.03
2019-04-07T08:07:45.637Z,71.05
2019-04-07T08:13:43.275Z,59.79
2019-04-07T08:19:32.989Z,41.95
2019-04-07T08:25:28.081Z,30.34
2019-04-07T08:31:22.937Z,25.75
2019-04-07T08:37:17.904Z,36.06
2019-04-07T08:43:12.650Z,20.78
2019-04-07T08:49:07.649Z,19.44
2019-04-07T08:55:03.037Z,16.25
2019-04-07T09:00:57.639Z,39.97
2019-04-07T09:06:52.680Z,31.85
2019-04-07T09:12:47.635Z,15.53
2019-04-07T09:18:52.084Z,27.14
2019-04-07T09:24:38.178Z,26.88
2019-04-07T09:30:32.675Z,21.53
2019-04-07T09:36:28.516Z,24.26
2019-04-07T09:42:25.581Z,17.74
2019-04-07T09:48:20.029Z,20.17
2019-04-07T09:54:13.267Z,21.49
2019-04-07T10:00:08.559Z,12.11
2019-04-07T10:06:02.684Z,8.18
2019-04-07T10:11:57.697Z,11.79
2019-04-07T10:17:52.689Z,10.27
2019-04-07T10:23:49.631Z,8.14
2019-04-07T10:29:42.856Z,8.24
2019-04-07T10:35:38.309Z,11.44
2019-04-07T10:41:32.736Z,8.6
2019-04-07T10:47:27.970Z,6.86
2019-04-07T10:53:22.787Z,4.96
2019-04-07T10:59:17.717Z,5.94
2019-04-07T11:05:13.051Z,5.14
2019-04-07T11:11:07.910Z,8.25
2019-04-07T11:17:03.561Z,4.3
2019-04-07T11:22:57.762Z,5.6
2019-04-07T11:28:53.596Z,4.56
2019-04-07T11:34:48.565Z,3.35
2019-04-07T11:40:47.661Z,4.56
2019-04-07T11:46:37.819Z,8.04
2019-04-07T11:52:33.182Z,4.14
2019-04-07T11:58:32.195Z,6.55
2019-04-07T12:04:22.755Z,6.86
2019-04-07T12:10:17.939Z,6.91
2019-04-07T12:16:13.489Z,5.62
2019-04-07T12:22:10.627Z,8.07
2019-04-07T12:28:03.451Z,11.13
2019-04-07T12:33:58.458Z,7.62
2019-04-07T12:39:53.378Z,5.98
2019-04-07T12:45:48.140Z,4.49
2019-04-07T12:51:42.989Z,5.88
2019-04-07T12:57:39.472Z,4.14
2019-04-07T13:03:33.238Z,5.62
2019-04-07T13:09:29.555Z,9.03
2019-04-07T13:15:23.435Z,4.99
2019-04-07T13:21:18.302Z,2.6
2019-04-07T13:27:13.980Z,3.51
2019-04-07T13:33:08.092Z,4.4
2019-04-07T13:39:02.817Z,3.93
2019-04-07T13:44:58.244Z,7.74
2019-04-07T13:50:52.844Z,3.73
2019-04-07T13:56:49.708Z,8.83
2019-04-07T14:02:43.174Z,3.9
2019-04-07T14:08:37.845Z,4.93
2019-04-07T14:14:32.991Z,3.13
2019-04-07T14:20:27.857Z,5.71
2019-04-07T14:26:23.305Z,5.85
2019-04-07T14:32:18.432Z,4.8
2019-04-07T14:38:13.526Z,3.01
2019-04-07T14:44:08.428Z,7.59
2019-04-07T14:50:03.690Z,3.69
2019-04-07T14:56:00.199Z,2.86
2019-04-07T15:01:53.579Z,4.3
2019-04-07T15:07:48.384Z,4.02
2019-04-07T15:13:45.420Z,3.44
2019-04-07T15:19:38.628Z,4.31
2019-04-07T15:25:32.894Z,7.03
2019-04-07T15:31:28.390Z,4.34
2019-04-07T15:37:24.751Z,5.02
2019-04-07T15:43:17.979Z,9.2
2019-04-07T15:49:12.932Z,3.55
2019-04-07T15:55:08.380Z,3.27
2019-04-07T16:01:06.066Z,2.9
2019-04-07T16:06:57.919Z,4.03
2019-04-07T16:12:54.082Z,4.54
2019-04-07T16:18:48.541Z,3.87
2019-04-07T16:24:42.934Z,4
2019-04-07T16:30:38.266Z,3.45
2019-04-07T16:36:32.997Z,4.37
2019-04-07T16:42:28.659Z,4.35
2019-04-07T16:48:22.964Z,4.67
2019-04-07T16:54:18.561Z,6.2
2019-04-07T17:00:14.054Z,9.3
2019-04-07T17:06:07.950Z,8.18
2019-04-07T17:12:03.518Z,12.75
2019-04-07T17:17:58.746Z,9.43
2019-04-07T17:23:55.287Z,10.29
2019-04-07T17:29:52.370Z,8.61
2019-04-07T17:35:43.552Z,15.72
2019-04-07T17:41:38.006Z,12.42
2019-04-07T17:47:35.420Z,11.33
2019-04-07T17:53:28.562Z,21.97
2019-04-07T17:59:23.007Z,16.71
2019-04-07T18:05:21.957Z,15.29
2019-04-07T18:11:13.046Z,13.74
2019-04-07T18:17:08.606Z,14.81
2019-04-07T18:23:03.302Z,14.61
2019-04-07T18:28:58.500Z,9.41
2019-04-07T18:34:53.113Z,12.54
2019-04-07T18:40:48.323Z,15.7
2019-04-07T18:46:46.922Z,12.1
2019-04-07T18:52:38.907Z,10.2
2019-04-07T18:58:33.268Z,9.28
2019-04-07T19:04:29.294Z,12.64
2019-04-07T19:10:25.210Z,11.94
2019-04-07T19:16:20.416Z,10.87
2019-04-07T19:22:15.685Z,8.24
2019-04-07T19:28:08.032Z,11.41
2019-04-07T19:34:03.710Z,8.25
2019-04-07T19:40:01.099Z,8.45
2019-04-07T19:45:55.121Z,8.04
2019-04-07T19:51:49.465Z,7.16
2019-04-07T19:57:43.098Z,9.42
2019-04-07T20:03:39.887Z,9.64
2019-04-07T20:09:34.181Z,12.81
2019-04-07T20:15:29.652Z,8.63
2019-04-07T20:21:34.746Z,8.45
2019-04-07T20:27:22.497Z,8.38
2019-04-07T20:33:13.205Z,10.71
2019-04-07T20:39:08.106Z,10.49
2019-04-07T20:45:06.893Z,9.85
2019-04-07T20:50:58.353Z,8.71
2019-04-07T20:56:53.105Z,12.12
2019-04-07T21:02:48.713Z,7.8
2019-04-07T21:08:43.420Z,7.9
2019-04-07T21:14:38.919Z,9
2019-04-07T21:20:33.107Z,13.5
2019-04-07T21:26:28.939Z,10.69
2019-04-07T21:32:23.117Z,11.92
2019-04-07T21:38:20.782Z,10.15
2019-04-07T21:44:13.327Z,9.55
2019-04-07T21:50:09.926Z,8.34
2019-04-07T21:56:03.885Z,8.84
2019-04-07T22:01:59.193Z,7.35
2019-04-07T22:07:53.524Z,8.07
2019-04-07T22:13:48.987Z,7.2
2019-04-07T22:19:45.115Z,8.89
2019-04-07T22:25:39.870Z,9.15
2019-04-07T22:31:33.206Z,8.04
2019-04-07T22:37:28.229Z,8.4
2019-04-07T22:43:24.772Z,6.59
2019-04-07T22:49:18.157Z,8.06
2019-04-07T22:55:13.182Z,6.69
2019-04-07T23:01:08.998Z,6.22
2019-04-07T23:07:04.056Z,7.67
2019-04-07T23:12:58.190Z,9.57
2019-04-07T23:18:54.084Z,6.34
2019-04-07T23:24:48.208Z,6.71
2019-04-07T23:30:43.187Z,5.74
2019-04-07T23:36:38.305Z,7.09
2019-04-07T23:42:33.181Z,6.7
2019-04-07T23:48:28.408Z,5.35
2019-04-07T23:54:23.205Z,6.33
